sensor_id;sensor_type;location;lat;lon;timestamp;P1;durP1;ratioP1;P2;durP2;ratioP2
10144;SDS011;5113;41.822;23.564;2024-02-21T00:02:43;47.87;;;23.00;;
10144;SDS011;5113;41.822;23.564;2024-02-21T00:05:49;42.33;;;20.20;;
10144;SDS011;5113;41.822;23.564;2024-02-21T00:08:58;33.30;;;18.60;;
10144;SDS011;5113;41.822;23.564;2024-02-21T00:12:05;28.83;;;15.70;;
10144;SDS011;5113;41.822;23.564;2024-02-21T00:15:12;27.43;;;16.03;;
10144;SDS011;5113;41.822;23.564;2024-02-21T00:18:18;27.57;;;15.80;;
10144;SDS011;5113;41.822;23.564;2024-02-21T00:21:26;28.27;;;15.17;;
10144;SDS011;5113;41.822;23.564;2024-02-21T00:24:34;22.80;;;13.80;;
10144;SDS011;5113;41.822;23.564;2024-02-21T00:27:42;26.03;;;15.10;;
10144;SDS011;5113;41.822;23.564;2024-02-21T00:30:49;29.40;;;15.77;;
10144;SDS011;5113;41.822;23.564;2024-02-21T00:33:58;26.90;;;16.07;;
10144;SDS011;5113;41.822;23.564;2024-02-21T00:37:05;29.00;;;15.67;;
10144;SDS011;5113;41.822;23.564;2024-02-21T00:40:13;23.40;;;14.70;;
10144;SDS011;5113;41.822;23.564;2024-02-21T00:43:25;26.63;;;14.17;;
10144;SDS011;5113;41.822;23.564;2024-02-21T00:46:31;27.57;;;14.63;;
10144;SDS011;5113;41.822;23.564;2024-02-21T00:49:38;28.63;;;16.03;;
10144;SDS011;5113;41.822;23.564;2024-02-21T00:52:46;23.13;;;15.07;;
10144;SDS011;5113;41.822;23.564;2024-02-21T00:55:55;22.37;;;14.07;;
10144;SDS011;5113;41.822;23.564;2024-02-21T00:59:02;25.97;;;15.23;;
10144;SDS011;5113;41.822;23.564;2024-02-21T01:02:10;26.20;;;14.70;;
10144;SDS011;5113;41.822;23.564;2024-02-21T01:05:16;27.63;;;14.67;;
10144;SDS011;5113;41.822;23.564;2024-02-21T01:08:25;27.30;;;14.97;;
10144;SDS011;5113;41.822;23.564;2024-02-21T01:11:32;28.23;;;16.43;;
10144;SDS011;5113;41.822;23.564;2024-02-21T01:14:39;27.53;;;15.87;;
10144;SDS011;5113;41.822;23.564;2024-02-21T01:17:46;30.23;;;17.13;;
10144;SDS011;5113;41.822;23.564;2024-02-21T01:20:55;32.10;;;15.47;;
10144;SDS011;5113;41.822;23.564;2024-02-21T01:24:01;26.50;;;15.77;;
10144;SDS011;5113;41.822;23.564;2024-02-21T01:27:10;29.50;;;14.77;;
10144;SDS011;5113;41.822;23.564;2024-02-21T01:30:16;25.40;;;15.37;;
10144;SDS011;5113;41.822;23.564;2024-02-21T01:33:24;27.97;;;15.43;;
10144;SDS011;5113;41.822;23.564;2024-02-21T01:36:30;21.63;;;13.37;;
10144;SDS011;5113;41.822;23.564;2024-02-21T01:39:37;25.97;;;14.60;;
10144;SDS011;5113;41.822;23.564;2024-02-21T01:42:45;25.00;;;14.13;;
10144;SDS011;5113;41.822;23.564;2024-02-21T01:45:53;25.57;;;14.10;;
10144;SDS011;5113;41.822;23.564;2024-02-21T01:49:01;23.60;;;14.77;;
10144;SDS011;5113;41.822;23.564;2024-02-21T01:52:09;21.20;;;14.47;;
10144;SDS011;5113;41.822;23.564;2024-02-21T01:55:18;28.00;;;13.60;;
10144;SDS011;5113;41.822;23.564;2024-02-21T01:58:27;23.90;;;13.07;;
10144;SDS011;5113;41.822;23.564;2024-02-21T02:01:36;22.83;;;13.13;;
10144;SDS011;5113;41.822;23.564;2024-02-21T02:04:43;23.13;;;13.03;;
10144;SDS011;5113;41.822;23.564;2024-02-21T02:07:51;23.80;;;13.03;;
10144;SDS011;5113;41.822;23.564;2024-02-21T02:10:57;22.27;;;12.27;;
10144;SDS011;5113;41.822;23.564;2024-02-21T02:14:07;22.70;;;12.03;;
10144;SDS011;5113;41.822;23.564;2024-02-21T02:17:13;21.80;;;13.23;;
10144;SDS011;5113;41.822;23.564;2024-02-21T02:20:21;29.17;;;16.80;;
10144;SDS011;5113;41.822;23.564;2024-02-21T02:23:30;30.80;;;15.93;;
10144;SDS011;5113;41.822;23.564;2024-02-21T02:26:38;28.07;;;15.13;;
10144;SDS011;5113;41.822;23.564;2024-02-21T02:29:45;25.33;;;15.57;;
10144;SDS011;5113;41.822;23.564;2024-02-21T02:32:51;24.83;;;15.17;;
10144;SDS011;5113;41.822;23.564;2024-02-21T02:35:58;29.47;;;14.50;;
10144;SDS011;5113;41.822;23.564;2024-02-21T02:39:07;31.90;;;15.80;;
10144;SDS011;5113;41.822;23.564;2024-02-21T02:42:13;29.60;;;15.10;;
10144;SDS011;5113;41.822;23.564;2024-02-21T02:45:20;35.40;;;18.00;;
10144;SDS011;5113;41.822;23.564;2024-02-21T02:48:28;29.80;;;14.37;;
10144;SDS011;5113;41.822;23.564;2024-02-21T02:51:35;23.10;;;11.80;;
10144;SDS011;5113;41.822;23.564;2024-02-21T02:54:43;17.30;;;10.70;;
10144;SDS011;5113;41.822;23.564;2024-02-21T02:57:56;20.10;;;11.23;;
10144;SDS011;5113;41.822;23.564;2024-02-21T03:01:02;20.87;;;11.47;;
10144;SDS011;5113;41.822;23.564;2024-02-21T03:04:10;28.03;;;13.87;;
10144;SDS011;5113;41.822;23.564;2024-02-21T03:07:16;23.00;;;13.57;;
10144;SDS011;5113;41.822;23.564;2024-02-21T03:10:24;20.53;;;13.00;;
10144;SDS011;5113;41.822;23.564;2024-02-21T03:13:31;22.13;;;12.47;;
10144;SDS011;5113;41.822;23.564;2024-02-21T03:16:38;23.13;;;14.03;;
10144;SDS011;5113;41.822;23.564;2024-02-21T03:19:45;21.87;;;12.77;;
10144;SDS011;5113;41.822;23.564;2024-02-21T03:22:53;23.60;;;12.53;;
10144;SDS011;5113;41.822;23.564;2024-02-21T03:26:01;21.30;;;11.77;;
10144;SDS011;5113;41.822;23.564;2024-02-21T03:29:09;20.53;;;11.43;;
10144;SDS011;5113;41.822;23.564;2024-02-21T03:32:16;18.97;;;11.57;;
10144;SDS011;5113;41.822;23.564;2024-02-21T03:35:23;22.80;;;12.63;;
10144;SDS011;5113;41.822;23.564;2024-02-21T03:38:30;19.43;;;12.07;;
10144;SDS011;5113;41.822;23.564;2024-02-21T03:41:39;22.03;;;11.70;;
10144;SDS011;5113;41.822;23.564;2024-02-21T03:44:45;23.97;;;13.37;;
10144;SDS011;5113;41.822;23.564;2024-02-21T03:47:52;18.30;;;12.20;;
10144;SDS011;5113;41.822;23.564;2024-02-21T03:50:58;18.77;;;12.77;;
10144;SDS011;5113;41.822;23.564;2024-02-21T03:54:06;21.70;;;13.27;;
10144;SDS011;5113;41.822;23.564;2024-02-21T03:57:14;20.80;;;12.93;;
10144;SDS011;5113;41.822;23.564;2024-02-21T04:00:22;23.13;;;11.77;;
10144;SDS011;5113;41.822;23.564;2024-02-21T04:03:30;21.37;;;12.80;;
10144;SDS011;5113;41.822;23.564;2024-02-21T04:06:45;20.70;;;13.47;;
10144;SDS011;5113;41.822;23.564;2024-02-21T04:09:53;21.20;;;12.67;;
10144;SDS011;5113;41.822;23.564;2024-02-21T04:13:01;21.83;;;12.27;;
10144;SDS011;5113;41.822;23.564;2024-02-21T04:16:08;23.90;;;14.00;;
10144;SDS011;5113;41.822;23.564;2024-02-21T04:19:16;24.77;;;13.53;;
10144;SDS011;5113;41.822;23.564;2024-02-21T04:22:23;26.00;;;13.07;;
10144;SDS011;5113;41.822;23.564;2024-02-21T04:25:29;23.83;;;13.57;;
10144;SDS011;5113;41.822;23.564;2024-02-21T04:28:37;47.80;;;23.00;;
10144;SDS011;5113;41.822;23.564;2024-02-21T04:31:44;32.67;;;18.23;;
10144;SDS011;5113;41.822;23.564;2024-02-21T04:34:51;29.50;;;15.90;;
10144;SDS011;5113;41.822;23.564;2024-02-21T04:37:58;24.90;;;13.70;;
10144;SDS011;5113;41.822;23.564;2024-02-21T04:41:05;25.83;;;15.70;;
10144;SDS011;5113;41.822;23.564;2024-02-21T04:44:14;29.13;;;18.27;;
10144;SDS011;5113;41.822;23.564;2024-02-21T04:47:21;37.87;;;21.93;;
10144;SDS011;5113;41.822;23.564;2024-02-21T04:53:55;109.30;;;59.23;;
10144;SDS011;5113;41.822;23.564;2024-02-21T04:57:04;27.93;;;15.07;;
10144;SDS011;5113;41.822;23.564;2024-02-21T05:00:13;26.10;;;16.90;;
10144;SDS011;5113;41.822;23.564;2024-02-21T05:03:20;23.63;;;15.30;;
10144;SDS011;5113;41.822;23.564;2024-02-21T05:06:27;25.97;;;16.07;;
10144;SDS011;5113;41.822;23.564;2024-02-21T05:09:34;29.03;;;19.03;;
10144;SDS011;5113;41.822;23.564;2024-02-21T05:12:41;33.10;;;18.47;;
10144;SDS011;5113;41.822;23.564;2024-02-21T05:15:49;30.67;;;18.93;;
10144;SDS011;5113;41.822;23.564;2024-02-21T05:18:56;144.57;;;61.87;;
10144;SDS011;5113;41.822;23.564;2024-02-21T05:22:03;278.37;;;107.07;;
10144;SDS011;5113;41.822;23.564;2024-02-21T05:25:10;62.97;;;29.10;;
10144;SDS011;5113;41.822;23.564;2024-02-21T05:28:18;39.37;;;20.57;;
10144;SDS011;5113;41.822;23.564;2024-02-21T05:31:26;31.00;;;16.63;;
10144;SDS011;5113;41.822;23.564;2024-02-21T05:34:48;50.43;;;29.57;;
10144;SDS011;5113;41.822;23.564;2024-02-21T05:37:56;38.37;;;21.40;;
10144;SDS011;5113;41.822;23.564;2024-02-21T05:41:04;38.17;;;21.97;;
10144;SDS011;5113;41.822;23.564;2024-02-21T05:44:16;44.97;;;24.27;;
10144;SDS011;5113;41.822;23.564;2024-02-21T05:47:24;49.50;;;25.63;;
10144;SDS011;5113;41.822;23.564;2024-02-21T05:50:31;48.47;;;23.93;;
10144;SDS011;5113;41.822;23.564;2024-02-21T05:53:37;45.53;;;27.30;;
10144;SDS011;5113;41.822;23.564;2024-02-21T05:56:45;40.60;;;22.37;;
10144;SDS011;5113;41.822;23.564;2024-02-21T05:59:52;67.07;;;33.43;;
10144;SDS011;5113;41.822;23.564;2024-02-21T06:03:00;70.57;;;37.57;;
10144;SDS011;5113;41.822;23.564;2024-02-21T06:06:07;66.67;;;39.23;;
10144;SDS011;5113;41.822;23.564;2024-02-21T06:09:14;100.87;;;52.47;;
10144;SDS011;5113;41.822;23.564;2024-02-21T06:12:20;119.37;;;54.53;;
10144;SDS011;5113;41.822;23.564;2024-02-21T06:15:27;134.87;;;61.30;;
10144;SDS011;5113;41.822;23.564;2024-02-21T06:18:36;129.83;;;59.77;;
10144;SDS011;5113;41.822;23.564;2024-02-21T06:21:43;69.50;;;38.13;;
10144;SDS011;5113;41.822;23.564;2024-02-21T06:24:50;56.07;;;31.23;;
10144;SDS011;5113;41.822;23.564;2024-02-21T06:27:59;83.13;;;40.07;;
10144;SDS011;5113;41.822;23.564;2024-02-21T06:31:06;65.37;;;35.97;;
10144;SDS011;5113;41.822;23.564;2024-02-21T06:34:14;56.83;;;29.93;;
10144;SDS011;5113;41.822;23.564;2024-02-21T06:37:21;47.20;;;27.90;;
10144;SDS011;5113;41.822;23.564;2024-02-21T06:40:29;44.47;;;23.33;;
10144;SDS011;5113;41.822;23.564;2024-02-21T06:43:42;67.57;;;33.20;;
10144;SDS011;5113;41.822;23.564;2024-02-21T06:46:49;59.23;;;30.97;;
10144;SDS011;5113;41.822;23.564;2024-02-21T06:49:57;58.00;;;32.23;;
10144;SDS011;5113;41.822;23.564;2024-02-21T06:53:04;62.07;;;32.20;;
10144;SDS011;5113;41.822;23.564;2024-02-21T06:56:11;74.50;;;36.83;;
10144;SDS011;5113;41.822;23.564;2024-02-21T06:59:18;52.10;;;31.90;;
10144;SDS011;5113;41.822;23.564;2024-02-21T07:02:25;52.60;;;29.90;;
10144;SDS011;5113;41.822;23.564;2024-02-21T07:05:33;51.33;;;28.03;;
10144;SDS011;5113;41.822;23.564;2024-02-21T07:08:40;38.70;;;22.77;;
10144;SDS011;5113;41.822;23.564;2024-02-21T07:11:46;50.33;;;25.03;;
10144;SDS011;5113;41.822;23.564;2024-02-21T07:14:53;53.90;;;27.87;;
10144;SDS011;5113;41.822;23.564;2024-02-21T07:18:00;56.67;;;29.23;;
10144;SDS011;5113;41.822;23.564;2024-02-21T07:21:08;84.97;;;41.70;;
10144;SDS011;5113;41.822;23.564;2024-02-21T07:24:14;92.27;;;42.87;;
10144;SDS011;5113;41.822;23.564;2024-02-21T07:27:21;99.07;;;46.93;;
10144;SDS011;5113;41.822;23.564;2024-02-21T07:30:28;114.10;;;49.50;;
10144;SDS011;5113;41.822;23.564;2024-02-21T07:33:35;78.23;;;38.93;;
10144;SDS011;5113;41.822;23.564;2024-02-21T07:36:43;60.53;;;33.03;;
10144;SDS011;5113;41.822;23.564;2024-02-21T07:39:50;49.37;;;28.10;;
10144;SDS011;5113;41.822;23.564;2024-02-21T07:42:57;34.83;;;20.57;;
10144;SDS011;5113;41.822;23.564;2024-02-21T07:46:03;27.43;;;17.63;;
10144;SDS011;5113;41.822;23.564;2024-02-21T07:49:10;46.20;;;20.17;;
10144;SDS011;5113;41.822;23.564;2024-02-21T07:52:18;24.73;;;14.13;;
10144;SDS011;5113;41.822;23.564;2024-02-21T07:55:25;22.37;;;13.47;;
10144;SDS011;5113;41.822;23.564;2024-02-21T07:58:32;30.00;;;17.57;;
10144;SDS011;5113;41.822;23.564;2024-02-21T08:01:40;26.30;;;15.73;;
10144;SDS011;5113;41.822;23.564;2024-02-21T08:04:48;28.63;;;17.27;;
10144;SDS011;5113;41.822;23.564;2024-02-21T08:07:56;30.63;;;17.27;;
10144;SDS011;5113;41.822;23.564;2024-02-21T08:11:03;27.93;;;16.23;;
10144;SDS011;5113;41.822;23.564;2024-02-21T08:14:11;25.93;;;15.47;;
10144;SDS011;5113;41.822;23.564;2024-02-21T08:17:23;24.37;;;13.47;;
10144;SDS011;5113;41.822;23.564;2024-02-21T08:20:31;23.23;;;13.70;;
10144;SDS011;5113;41.822;23.564;2024-02-21T08:23:39;20.57;;;12.57;;
10144;SDS011;5113;41.822;23.564;2024-02-21T08:26:47;19.60;;;11.93;;
10144;SDS011;5113;41.822;23.564;2024-02-21T08:29:53;26.37;;;15.83;;
10144;SDS011;5113;41.822;23.564;2024-02-21T08:33:00;33.63;;;18.50;;
10144;SDS011;5113;41.822;23.564;2024-02-21T08:36:08;45.83;;;25.63;;
10144;SDS011;5113;41.822;23.564;2024-02-21T08:39:17;19.93;;;13.00;;
10144;SDS011;5113;41.822;23.564;2024-02-21T08:42:23;26.27;;;13.93;;
10144;SDS011;5113;41.822;23.564;2024-02-21T08:45:30;18.73;;;11.53;;
10144;SDS011;5113;41.822;23.564;2024-02-21T08:48:37;16.17;;;10.83;;
10144;SDS011;5113;41.822;23.564;2024-02-21T08:51:43;16.80;;;9.73;;
10144;SDS011;5113;41.822;23.564;2024-02-21T08:54:53;18.27;;;12.60;;
10144;SDS011;5113;41.822;23.564;2024-02-21T08:58:00;22.40;;;13.30;;
10144;SDS011;5113;41.822;23.564;2024-02-21T09:01:10;14.57;;;10.53;;
10144;SDS011;5113;41.822;23.564;2024-02-21T09:04:16;21.50;;;11.20;;
10144;SDS011;5113;41.822;23.564;2024-02-21T09:07:23;17.77;;;11.30;;
10144;SDS011;5113;41.822;23.564;2024-02-21T09:10:31;21.53;;;12.40;;
10144;SDS011;5113;41.822;23.564;2024-02-21T09:13:38;19.17;;;11.63;;
10144;SDS011;5113;41.822;23.564;2024-02-21T09:16:45;13.67;;;9.37;;
10144;SDS011;5113;41.822;23.564;2024-02-21T09:19:52;18.00;;;12.17;;
10144;SDS011;5113;41.822;23.564;2024-02-21T09:23:00;11.43;;;7.67;;
10144;SDS011;5113;41.822;23.564;2024-02-21T09:26:09;16.20;;;8.90;;
10144;SDS011;5113;41.822;23.564;2024-02-21T09:29:18;10.23;;;6.23;;
10144;SDS011;5113;41.822;23.564;2024-02-21T09:32:29;14.53;;;9.27;;
10144;SDS011;5113;41.822;23.564;2024-02-21T09:35:37;21.97;;;10.53;;
10144;SDS011;5113;41.822;23.564;2024-02-21T09:38:44;16.03;;;10.10;;
10144;SDS011;5113;41.822;23.564;2024-02-21T09:41:55;26.07;;;13.87;;
10144;SDS011;5113;41.822;23.564;2024-02-21T09:45:07;7.63;;;6.00;;
10144;SDS011;5113;41.822;23.564;2024-02-21T09:51:50;12.50;;;8.13;;
10144;SDS011;5113;41.822;23.564;2024-02-21T09:54:59;19.60;;;11.00;;
10144;SDS011;5113;41.822;23.564;2024-02-21T09:58:11;9.80;;;7.03;;
10144;SDS011;5113;41.822;23.564;2024-02-21T10:01:18;9.33;;;5.90;;
10144;SDS011;5113;41.822;23.564;2024-02-21T10:04:39;8.03;;;4.77;;
10144;SDS011;5113;41.822;23.564;2024-02-21T10:07:46;6.00;;;4.63;;
10144;SDS011;5113;41.822;23.564;2024-02-21T10:10:54;16.67;;;9.20;;
10144;SDS011;5113;41.822;23.564;2024-02-21T10:14:06;9.93;;;4.67;;
10144;SDS011;5113;41.822;23.564;2024-02-21T10:17:15;14.77;;;7.90;;
10144;SDS011;5113;41.822;23.564;2024-02-21T10:20:24;8.57;;;5.67;;
10144;SDS011;5113;41.822;23.564;2024-02-21T10:23:43;6.70;;;4.57;;
10144;SDS011;5113;41.822;23.564;2024-02-21T10:26:58;10.77;;;6.67;;
10144;SDS011;5113;41.822;23.564;2024-02-21T10:30:07;10.47;;;5.43;;
10144;SDS011;5113;41.822;23.564;2024-02-21T10:33:19;14.07;;;7.13;;
10144;SDS011;5113;41.822;23.564;2024-02-21T10:36:27;5.10;;;4.53;;
10144;SDS011;5113;41.822;23.564;2024-02-21T10:39:34;5.07;;;4.53;;
10144;SDS011;5113;41.822;23.564;2024-02-21T10:42:42;6.77;;;4.33;;
10144;SDS011;5113;41.822;23.564;2024-02-21T10:45:50;11.07;;;6.57;;
10144;SDS011;5113;41.822;23.564;2024-02-21T10:49:01;6.70;;;5.17;;
10144;SDS011;5113;41.822;23.564;2024-02-21T10:52:17;4.70;;;4.07;;
10144;SDS011;5113;41.822;23.564;2024-02-21T10:55:48;7.27;;;5.03;;
10144;SDS011;5113;41.822;23.564;2024-02-21T10:59:02;6.53;;;3.93;;
10144;SDS011;5113;41.822;23.564;2024-02-21T11:02:11;5.13;;;3.90;;
10144;SDS011;5113;41.822;23.564;2024-02-21T11:05:19;10.33;;;6.40;;
10144;SDS011;5113;41.822;23.564;2024-02-21T11:08:27;18.20;;;8.93;;
10144;SDS011;5113;41.822;23.564;2024-02-21T11:11:33;14.07;;;7.50;;
10144;SDS011;5113;41.822;23.564;2024-02-21T11:14:44;21.20;;;10.30;;
10144;SDS011;5113;41.822;23.564;2024-02-21T11:17:55;9.93;;;7.13;;
10144;SDS011;5113;41.822;23.564;2024-02-21T11:21:06;17.00;;;10.33;;
10144;SDS011;5113;41.822;23.564;2024-02-21T11:24:14;103.43;;;30.67;;
10144;SDS011;5113;41.822;23.564;2024-02-21T11:27:33;29.97;;;15.73;;
10144;SDS011;5113;41.822;23.564;2024-02-21T11:30:40;38.80;;;16.57;;
10144;SDS011;5113;41.822;23.564;2024-02-21T11:33:49;30.10;;;19.30;;
10144;SDS011;5113;41.822;23.564;2024-02-21T11:36:57;13.07;;;7.83;;
10144;SDS011;5113;41.822;23.564;2024-02-21T11:40:05;6.60;;;4.87;;
10144;SDS011;5113;41.822;23.564;2024-02-21T11:43:16;16.90;;;9.20;;
10144;SDS011;5113;41.822;23.564;2024-02-21T11:46:24;181.40;;;74.30;;
10144;SDS011;5113;41.822;23.564;2024-02-21T11:49:36;28.57;;;18.73;;
10144;SDS011;5113;41.822;23.564;2024-02-21T11:52:44;29.37;;;21.27;;
10144;SDS011;5113;41.822;23.564;2024-02-21T11:55:51;10.27;;;9.27;;
10144;SDS011;5113;41.822;23.564;2024-02-21T11:59:00;13.20;;;8.63;;
10144;SDS011;5113;41.822;23.564;2024-02-21T12:02:08;9.27;;;6.03;;
10144;SDS011;5113;41.822;23.564;2024-02-21T12:05:16;5.83;;;4.43;;
10144;SDS011;5113;41.822;23.564;2024-02-21T12:08:25;8.47;;;6.60;;
10144;SDS011;5113;41.822;23.564;2024-02-21T12:11:34;12.80;;;6.93;;
10144;SDS011;5113;41.822;23.564;2024-02-21T12:14:40;20.53;;;9.63;;
10144;SDS011;5113;41.822;23.564;2024-02-21T12:17:47;13.07;;;5.53;;
10144;SDS011;5113;41.822;23.564;2024-02-21T12:20:54;14.83;;;10.17;;
10144;SDS011;5113;41.822;23.564;2024-02-21T12:24:05;18.77;;;13.13;;
10144;SDS011;5113;41.822;23.564;2024-02-21T12:27:18;13.30;;;10.80;;
10144;SDS011;5113;41.822;23.564;2024-02-21T12:30:27;9.57;;;7.17;;
10144;SDS011;5113;41.822;23.564;2024-02-21T12:33:35;6.90;;;5.87;;
10144;SDS011;5113;41.822;23.564;2024-02-21T12:36:43;16.60;;;9.83;;
10144;SDS011;5113;41.822;23.564;2024-02-21T12:39:52;10.07;;;6.10;;
10144;SDS011;5113;41.822;23.564;2024-02-21T12:42:58;9.60;;;7.77;;
10144;SDS011;5113;41.822;23.564;2024-02-21T12:46:07;12.50;;;5.77;;
10144;SDS011;5113;41.822;23.564;2024-02-21T12:49:13;13.57;;;8.73;;
10144;SDS011;5113;41.822;23.564;2024-02-21T12:52:22;11.20;;;7.40;;
10144;SDS011;5113;41.822;23.564;2024-02-21T12:55:30;33.63;;;18.90;;
10144;SDS011;5113;41.822;23.564;2024-02-21T12:58:36;13.47;;;8.93;;
10144;SDS011;5113;41.822;23.564;2024-02-21T13:01:43;19.80;;;12.50;;
10144;SDS011;5113;41.822;23.564;2024-02-21T13:04:50;7.83;;;6.10;;
10144;SDS011;5113;41.822;23.564;2024-02-21T13:07:59;13.03;;;9.70;;
10144;SDS011;5113;41.822;23.564;2024-02-21T13:11:06;5.13;;;4.50;;
10144;SDS011;5113;41.822;23.564;2024-02-21T13:14:13;7.47;;;5.57;;
10144;SDS011;5113;41.822;23.564;2024-02-21T13:17:20;6.17;;;5.57;;
10144;SDS011;5113;41.822;23.564;2024-02-21T13:20:28;9.70;;;5.60;;
10144;SDS011;5113;41.822;23.564;2024-02-21T13:23:36;24.53;;;13.63;;
10144;SDS011;5113;41.822;23.564;2024-02-21T13:26:43;10.93;;;6.43;;
10144;SDS011;5113;41.822;23.564;2024-02-21T13:29:50;13.67;;;8.33;;
10144;SDS011;5113;41.822;23.564;2024-02-21T13:32:57;9.90;;;6.37;;
10144;SDS011;5113;41.822;23.564;2024-02-21T13:36:04;7.47;;;6.57;;
10144;SDS011;5113;41.822;23.564;2024-02-21T13:39:13;6.00;;;5.40;;
10144;SDS011;5113;41.822;23.564;2024-02-21T13:42:21;10.57;;;8.00;;
10144;SDS011;5113;41.822;23.564;2024-02-21T13:45:29;4.50;;;3.97;;
10144;SDS011;5113;41.822;23.564;2024-02-21T13:48:35;36.87;;;15.80;;
10144;SDS011;5113;41.822;23.564;2024-02-21T13:51:42;3.10;;;2.87;;
10144;SDS011;5113;41.822;23.564;2024-02-21T13:54:51;6.90;;;5.80;;
10144;SDS011;5113;41.822;23.564;2024-02-21T13:57:58;7.07;;;5.23;;
10144;SDS011;5113;41.822;23.564;2024-02-21T14:01:04;15.03;;;8.23;;
10144;SDS011;5113;41.822;23.564;2024-02-21T14:04:11;6.83;;;5.03;;
10144;SDS011;5113;41.822;23.564;2024-02-21T14:07:18;7.03;;;5.00;;
10144;SDS011;5113;41.822;23.564;2024-02-21T14:10:28;9.00;;;5.60;;
10144;SDS011;5113;41.822;23.564;2024-02-21T14:13:35;6.30;;;4.87;;
10144;SDS011;5113;41.822;23.564;2024-02-21T14:16:42;5.30;;;4.80;;
10144;SDS011;5113;41.822;23.564;2024-02-21T14:19:49;6.90;;;4.77;;
10144;SDS011;5113;41.822;23.564;2024-02-21T14:22:57;7.07;;;5.40;;
10144;SDS011;5113;41.822;23.564;2024-02-21T14:26:05;7.60;;;5.80;;
10144;SDS011;5113;41.822;23.564;2024-02-21T14:29:12;10.97;;;7.20;;
10144;SDS011;5113;41.822;23.564;2024-02-21T14:32:19;12.10;;;7.10;;
10144;SDS011;5113;41.822;23.564;2024-02-21T14:35:25;15.70;;;7.10;;
10144;SDS011;5113;41.822;23.564;2024-02-21T14:38:32;11.50;;;7.40;;
10144;SDS011;5113;41.822;23.564;2024-02-21T14:41:41;14.67;;;7.93;;
10144;SDS011;5113;41.822;23.564;2024-02-21T14:44:48;8.10;;;6.67;;
10144;SDS011;5113;41.822;23.564;2024-02-21T14:47:56;8.70;;;6.13;;
10144;SDS011;5113;41.822;23.564;2024-02-21T14:51:02;20.50;;;9.90;;
10144;SDS011;5113;41.822;23.564;2024-02-21T14:54:09;23.73;;;16.20;;
10144;SDS011;5113;41.822;23.564;2024-02-21T14:57:17;14.90;;;11.27;;
10144;SDS011;5113;41.822;23.564;2024-02-21T15:00:25;22.60;;;12.50;;
10144;SDS011;5113;41.822;23.564;2024-02-21T15:03:34;9.47;;;6.23;;
10144;SDS011;5113;41.822;23.564;2024-02-21T15:06:41;12.90;;;9.63;;
10144;SDS011;5113;41.822;23.564;2024-02-21T15:09:50;19.30;;;13.77;;
10144;SDS011;5113;41.822;23.564;2024-02-21T15:12:58;18.03;;;13.07;;
10144;SDS011;5113;41.822;23.564;2024-02-21T15:16:05;29.10;;;17.00;;
10144;SDS011;5113;41.822;23.564;2024-02-21T15:19:12;20.20;;;11.90;;
10144;SDS011;5113;41.822;23.564;2024-02-21T15:22:20;25.07;;;17.43;;
10144;SDS011;5113;41.822;23.564;2024-02-21T15:25:28;33.17;;;21.67;;
10144;SDS011;5113;41.822;23.564;2024-02-21T15:28:37;28.43;;;17.53;;
10144;SDS011;5113;41.822;23.564;2024-02-21T15:31:44;17.37;;;11.53;;
10144;SDS011;5113;41.822;23.564;2024-02-21T15:34:52;36.73;;;21.70;;
10144;SDS011;5113;41.822;23.564;2024-02-21T15:37:59;52.33;;;33.73;;
10144;SDS011;5113;41.822;23.564;2024-02-21T15:41:06;73.47;;;30.73;;
10144;SDS011;5113;41.822;23.564;2024-02-21T15:44:13;107.23;;;45.70;;
10144;SDS011;5113;41.822;23.564;2024-02-21T15:47:20;82.87;;;29.20;;
10144;SDS011;5113;41.822;23.564;2024-02-21T15:50:28;68.17;;;21.97;;
10144;SDS011;5113;41.822;23.564;2024-02-21T15:53:35;57.20;;;23.17;;
10144;SDS011;5113;41.822;23.564;2024-02-21T15:56:43;52.97;;;25.13;;
10144;SDS011;5113;41.822;23.564;2024-02-21T15:59:51;65.10;;;27.40;;
10144;SDS011;5113;41.822;23.564;2024-02-21T16:03:00;41.23;;;18.13;;
10144;SDS011;5113;41.822;23.564;2024-02-21T16:06:08;46.83;;;21.37;;
10144;SDS011;5113;41.822;23.564;2024-02-21T16:09:14;107.07;;;49.77;;
10144;SDS011;5113;41.822;23.564;2024-02-21T16:12:21;57.87;;;24.87;;
10144;SDS011;5113;41.822;23.564;2024-02-21T16:15:34;51.93;;;24.07;;
10144;SDS011;5113;41.822;23.564;2024-02-21T16:18:41;41.90;;;18.53;;
10144;SDS011;5113;41.822;23.564;2024-02-21T16:21:48;57.73;;;23.70;;
10144;SDS011;5113;41.822;23.564;2024-02-21T16:24:54;49.70;;;21.00;;
10144;SDS011;5113;41.822;23.564;2024-02-21T16:28:01;47.40;;;21.13;;
10144;SDS011;5113;41.822;23.564;2024-02-21T16:31:12;172.70;;;49.90;;
10144;SDS011;5113;41.822;23.564;2024-02-21T16:34:19;147.67;;;52.63;;
10144;SDS011;5113;41.822;23.564;2024-02-21T16:37:25;70.40;;;30.90;;
10144;SDS011;5113;41.822;23.564;2024-02-21T16:40:36;47.33;;;25.07;;
10144;SDS011;5113;41.822;23.564;2024-02-21T16:43:43;34.77;;;19.90;;
10144;SDS011;5113;41.822;23.564;2024-02-21T16:46:52;43.87;;;23.63;;
10144;SDS011;5113;41.822;23.564;2024-02-21T16:49:59;37.53;;;19.73;;
10144;SDS011;5113;41.822;23.564;2024-02-21T16:53:06;37.23;;;17.70;;
10144;SDS011;5113;41.822;23.564;2024-02-21T16:56:13;33.30;;;14.97;;
10144;SDS011;5113;41.822;23.564;2024-02-21T16:59:20;35.03;;;15.80;;
10144;SDS011;5113;41.822;23.564;2024-02-21T17:02:28;37.37;;;17.43;;
10144;SDS011;5113;41.822;23.564;2024-02-21T17:05:37;68.97;;;28.43;;
10144;SDS011;5113;41.822;23.564;2024-02-21T17:08:45;34.23;;;17.17;;
10144;SDS011;5113;41.822;23.564;2024-02-21T17:11:53;33.57;;;17.07;;
10144;SDS011;5113;41.822;23.564;2024-02-21T17:15:00;42.00;;;19.93;;
10144;SDS011;5113;41.822;23.564;2024-02-21T17:18:08;22.07;;;11.90;;
10144;SDS011;5113;41.822;23.564;2024-02-21T17:21:18;36.07;;;19.77;;
10144;SDS011;5113;41.822;23.564;2024-02-21T17:24:25;54.80;;;26.33;;
10144;SDS011;5113;41.822;23.564;2024-02-21T17:27:32;45.40;;;24.73;;
10144;SDS011;5113;41.822;23.564;2024-02-21T17:30:39;44.40;;;23.80;;
10144;SDS011;5113;41.822;23.564;2024-02-21T17:33:48;58.43;;;29.57;;
10144;SDS011;5113;41.822;23.564;2024-02-21T17:36:55;49.93;;;25.53;;
10144;SDS011;5113;41.822;23.564;2024-02-21T17:40:02;44.93;;;21.43;;
10144;SDS011;5113;41.822;23.564;2024-02-21T17:43:11;58.63;;;28.67;;
10144;SDS011;5113;41.822;23.564;2024-02-21T17:46:19;56.70;;;29.00;;
10144;SDS011;5113;41.822;23.564;2024-02-21T17:49:27;64.87;;;30.97;;
10144;SDS011;5113;41.822;23.564;2024-02-21T17:52:34;68.03;;;34.37;;
10144;SDS011;5113;41.822;23.564;2024-02-21T17:55:41;117.67;;;54.67;;
10144;SDS011;5113;41.822;23.564;2024-02-21T17:58:48;113.13;;;55.50;;
10144;SDS011;5113;41.822;23.564;2024-02-21T18:01:55;77.33;;;37.00;;
10144;SDS011;5113;41.822;23.564;2024-02-21T18:05:04;47.50;;;25.80;;
10144;SDS011;5113;41.822;23.564;2024-02-21T18:08:11;32.50;;;18.53;;
10144;SDS011;5113;41.822;23.564;2024-02-21T18:11:18;32.50;;;17.43;;
10144;SDS011;5113;41.822;23.564;2024-02-21T18:14:25;30.03;;;18.13;;
10144;SDS011;5113;41.822;23.564;2024-02-21T18:17:32;36.00;;;20.83;;
10144;SDS011;5113;41.822;23.564;2024-02-21T18:20:41;41.57;;;26.33;;
10144;SDS011;5113;41.822;23.564;2024-02-21T18:23:48;46.83;;;30.83;;
10144;SDS011;5113;41.822;23.564;2024-02-21T18:26:55;45.00;;;28.30;;
10144;SDS011;5113;41.822;23.564;2024-02-21T18:30:02;33.40;;;20.00;;
10144;SDS011;5113;41.822;23.564;2024-02-21T18:33:10;36.90;;;20.63;;